createdAt,value
2017-11-17T00:02:02.310Z,8.79
2017-11-17T00:04:28.237Z,8.83
2017-11-17T00:06:54.170Z,8.67
2017-11-17T00:09:20.123Z,8.61
2017-11-17T00:11:46.056Z,8.49
2017-11-17T00:14:12.002Z,8.51
2017-11-17T00:16:37.931Z,8.42
2017-11-17T00:19:03.862Z,8.45
2017-11-17T00:21:29.802Z,8.38
2017-11-17T00:23:55.761Z,8.38
2017-11-17T00:26:21.693Z,8.44
2017-11-17T00:28:47.626Z,8.34
2017-11-17T00:31:13.577Z,8.47
2017-11-17T00:33:39.546Z,8.22
2017-11-17T00:36:05.476Z,8.24
2017-11-17T00:38:31.416Z,8.24
2017-11-17T00:40:57.354Z,8.04
2017-11-17T00:43:23.499Z,8.14
2017-11-17T00:45:49.432Z,8.14
2017-11-17T00:48:15.375Z,8.35
2017-11-17T00:50:41.310Z,8.36
2017-11-17T00:53:07.242Z,8.31
2017-11-17T00:55:33.175Z,8.46
2017-11-17T00:57:59.191Z,8.81
2017-11-17T01:00:25.135Z,8.63
2017-11-17T01:02:51.059Z,8.57
2017-11-17T01:05:17.020Z,8.59
2017-11-17T01:07:42.958Z,8.66
2017-11-17T01:10:08.901Z,8.57
2017-11-17T01:12:34.843Z,8.63
2017-11-17T01:15:00.772Z,8.63
2017-11-17T01:17:26.724Z,8.86
2017-11-17T01:19:52.655Z,8.96
2017-11-17T01:22:18.578Z,8.99
2017-11-17T01:24:44.507Z,8.95
2017-11-17T01:27:10.433Z,8.92
2017-11-17T01:29:36.368Z,8.89
2017-11-17T01:32:02.308Z,9.21
2017-11-17T01:34:28.234Z,9.03
2017-11-17T01:36:54.162Z,9.00
2017-11-17T01:39:20.085Z,8.99
2017-11-17T01:41:46.027Z,8.93
2017-11-17T01:44:11.983Z,9.07
2017-11-17T01:46:37.940Z,8.95
2017-11-17T01:49:03.905Z,9.01
2017-11-17T01:51:29.856Z,8.92
2017-11-17T01:53:55.789Z,8.92
2017-11-17T01:56:21.736Z,8.82
2017-11-17T01:58:47.674Z,8.95
2017-11-17T02:01:13.618Z,8.84
2017-11-17T02:03:39.543Z,8.73
2017-11-17T02:06:05.496Z,8.85
2017-11-17T02:08:31.420Z,8.78
2017-11-17T02:10:57.355Z,8.57
2017-11-17T02:13:23.297Z,8.62
2017-11-17T02:15:49.233Z,8.78
2017-11-17T02:18:15.161Z,8.82
2017-11-17T02:20:41.093Z,8.88
2017-11-17T02:23:07.031Z,8.71
2017-11-17T02:25:32.975Z,8.75
2017-11-17T02:27:58.897Z,8.81
2017-11-17T02:30:24.835Z,8.82
2017-11-17T02:32:50.769Z,8.75
2017-11-17T02:35:16.713Z,8.76
2017-11-17T02:37:42.677Z,8.78
2017-11-17T02:40:08.621Z,8.67
2017-11-17T02:42:34.553Z,8.71
2017-11-17T02:45:00.481Z,8.82
2017-11-17T02:47:26.416Z,9.05
2017-11-17T02:49:52.347Z,8.93
2017-11-17T02:52:18.269Z,8.87
2017-11-17T02:54:44.213Z,9.00
2017-11-17T02:57:10.155Z,8.81
2017-11-17T02:59:36.086Z,8.72
2017-11-17T03:02:02.039Z,8.87
2017-11-17T03:04:27.983Z,8.92
2017-11-17T03:06:53.908Z,8.82
2017-11-17T03:09:19.834Z,8.72
2017-11-17T03:11:45.763Z,8.91
2017-11-17T03:14:11.733Z,9.06
2017-11-17T03:16:37.659Z,9.10
2017-11-17T03:19:03.585Z,9.06
2017-11-17T03:21:29.518Z,9.17
2017-11-17T03:23:55.449Z,9.15
2017-11-17T03:26:21.389Z,8.98
2017-11-17T03:28:47.335Z,9.18
2017-11-17T03:31:13.301Z,9.08
2017-11-17T03:33:39.241Z,9.14
2017-11-17T03:36:05.194Z,9.20
2017-11-17T03:38:31.133Z,9.27
2017-11-17T03:40:57.073Z,9.24
2017-11-17T03:43:23.136Z,9.14
2017-11-17T03:45:49.061Z,9.05
2017-11-17T03:48:14.980Z,9.07
2017-11-17T03:50:40.944Z,9.07
2017-11-17T03:53:06.886Z,9.23
2017-11-17T03:55:32.840Z,9.23
2017-11-17T03:57:58.772Z,9.15
2017-11-17T04:00:24.708Z,9.22
2017-11-17T04:02:50.657Z,9.21
2017-11-17T04:05:16.582Z,9.22
2017-11-17T04:07:42.526Z,9.13
2017-11-17T04:10:08.456Z,9.27
2017-11-17T04:12:34.388Z,9.15
2017-11-17T04:15:00.325Z,9.32
2017-11-17T04:17:26.266Z,9.33
2017-11-17T04:19:52.221Z,9.38
2017-11-17T04:22:18.213Z,9.28
2017-11-17T04:24:44.159Z,9.27
2017-11-17T04:27:10.112Z,9.28
2017-11-17T04:29:36.054Z,9.32
2017-11-17T04:32:01.993Z,9.26
2017-11-17T04:34:27.916Z,9.35
2017-11-17T04:36:53.848Z,9.35
2017-11-17T04:39:19.794Z,9.25
2017-11-17T04:41:45.740Z,9.31
2017-11-17T04:44:11.680Z,9.31
2017-11-17T04:46:37.624Z,9.42
2017-11-17T04:49:03.560Z,9.34
2017-11-17T04:51:29.646Z,9.49
2017-11-17T04:53:55.574Z,9.39
2017-11-17T04:56:21.523Z,9.39
2017-11-17T04:58:47.460Z,9.46
2017-11-17T05:01:13.388Z,9.42
2017-11-17T05:03:39.343Z,9.39
2017-11-17T05:06:05.354Z,9.32
2017-11-17T05:08:31.301Z,9.43
2017-11-17T05:10:57.326Z,9.43
2017-11-17T05:13:23.317Z,9.50
2017-11-17T05:15:49.266Z,9.51
2017-11-17T05:18:15.208Z,9.57
2017-11-17T05:20:41.150Z,9.36
2017-11-17T05:23:07.089Z,9.39
2017-11-17T05:25:33.020Z,9.43
2017-11-17T05:27:58.980Z,9.53
2017-11-17T05:30:24.912Z,9.46
2017-11-17T05:32:50.836Z,9.53
2017-11-17T05:35:16.772Z,9.59
2017-11-17T05:37:42.727Z,9.44
2017-11-17T05:40:08.857Z,9.44
2017-11-17T05:42:34.795Z,9.38
2017-11-17T05:45:00.740Z,9.37
2017-11-17T05:47:26.692Z,9.30
2017-11-17T05:49:52.628Z,9.30
2017-11-17T05:52:18.575Z,9.49
2017-11-17T05:54:44.509Z,9.14
2017-11-17T05:57:10.435Z,8.88
2017-11-17T05:59:36.364Z,9.21
2017-11-17T06:02:02.308Z,9.43
2017-11-17T06:04:28.271Z,9.35
2017-11-17T06:06:54.204Z,9.47
2017-11-17T06:09:20.167Z,9.54
2017-11-17T06:11:46.093Z,9.27
2017-11-17T06:14:12.029Z,9.49
2017-11-17T06:16:37.983Z,9.48
2017-11-17T06:19:03.916Z,9.02
2017-11-17T06:21:29.882Z,9.09
2017-11-17T06:23:55.826Z,9.44
2017-11-17T06:26:21.786Z,9.43
2017-11-17T06:28:47.711Z,9.52
2017-11-17T06:31:13.651Z,9.37
2017-11-17T06:33:39.605Z,9.48
2017-11-17T06:36:05.532Z,9.48
2017-11-17T06:38:31.489Z,9.35
2017-11-17T06:40:57.434Z,9.28
2017-11-17T06:43:23.369Z,9.13
2017-11-17T06:45:49.359Z,9.10
2017-11-17T06:48:15.291Z,9.22
2017-11-17T06:50:41.229Z,9.44
2017-11-17T06:53:07.167Z,9.25
2017-11-17T06:55:33.086Z,9.39
2017-11-17T06:57:59.036Z,9.49
2017-11-17T07:00:24.979Z,9.53
2017-11-17T07:02:50.920Z,9.39
2017-11-17T07:05:16.868Z,9.56
2017-11-17T07:07:42.804Z,9.43
2017-11-17T07:10:08.755Z,9.53
2017-11-17T07:12:34.688Z,9.50
2017-11-17T07:15:00.604Z,9.64
2017-11-17T07:17:26.532Z,9.69
2017-11-17T07:19:52.465Z,9.76
2017-11-17T07:22:18.408Z,9.60
2017-11-17T07:24:44.340Z,9.53
2017-11-17T07:27:10.281Z,9.61
2017-11-17T07:29:36.216Z,9.57
2017-11-17T07:32:02.174Z,9.62
2017-11-17T07:34:28.154Z,9.59
2017-11-17T07:36:54.068Z,9.15
2017-11-17T07:39:20.019Z,9.48
2017-11-17T07:41:45.968Z,9.72
2017-11-17T07:44:11.931Z,9.67
2017-11-17T07:46:37.917Z,9.64
2017-11-17T07:49:03.893Z,9.64
2017-11-17T07:51:29.832Z,9.56
2017-11-17T07:53:55.761Z,9.69
2017-11-17T07:56:21.698Z,9.87
2017-11-17T07:58:47.638Z,9.76
2017-11-17T08:01:13.577Z,9.73
2017-11-17T08:03:39.524Z,9.67
2017-11-17T08:06:05.453Z,9.73
2017-11-17T08:08:31.398Z,9.83
2017-11-17T08:10:57.385Z,9.89
2017-11-17T08:13:23.311Z,9.95
2017-11-17T08:15:49.266Z,10.04
2017-11-17T08:18:15.208Z,10.09
2017-11-17T08:20:41.133Z,9.97
2017-11-17T08:23:07.094Z,9.95
2017-11-17T08:25:33.033Z,9.98
2017-11-17T08:27:58.980Z,10.07
2017-11-17T08:30:24.926Z,9.95
2017-11-17T08:32:50.922Z,9.99
2017-11-17T08:35:16.892Z,9.85
2017-11-17T08:37:42.832Z,10.00
2017-11-17T08:40:08.798Z,10.00
2017-11-17T08:42:34.744Z,9.92
2017-11-17T08:45:00.678Z,9.93
2017-11-17T08:47:26.632Z,10.09
2017-11-17T08:49:52.572Z,10.16
2017-11-17T08:52:18.503Z,10.08
2017-11-17T08:54:44.460Z,10.08
2017-11-17T08:57:10.407Z,10.02
2017-11-17T08:59:36.360Z,10.11
2017-11-17T09:02:02.305Z,10.19
2017-11-17T09:04:28.267Z,10.24
2017-11-17T09:06:54.216Z,10.08
2017-11-17T09:09:20.196Z,10.04
2017-11-17T09:11:46.163Z,10.14
2017-11-17T09:14:12.100Z,10.11
2017-11-17T09:16:38.059Z,10.20
2017-11-17T09:19:04.017Z,10.18
2017-11-17T09:21:29.968Z,10.05
2017-11-17T09:23:55.924Z,10.14
2017-11-17T09:26:21.950Z,10.12
2017-11-17T09:28:47.894Z,10.21
2017-11-17T09:31:13.881Z,10.25
2017-11-17T09:33:39.836Z,10.54
2017-11-17T09:36:05.771Z,10.42
2017-11-17T09:38:31.755Z,10.28
2017-11-17T09:40:57.680Z,10.88
2017-11-17T09:43:23.621Z,10.61
2017-11-17T09:45:49.577Z,10.75
2017-11-17T09:48:15.609Z,10.60
2017-11-17T09:50:41.558Z,10.52
2017-11-17T09:53:07.519Z,10.94
2017-11-17T09:55:33.453Z,10.66
2017-11-17T09:57:59.390Z,10.69
2017-11-17T10:00:25.336Z,10.73
2017-11-17T10:02:51.281Z,10.83
2017-11-17T10:05:17.220Z,10.89
2017-11-17T10:07:43.182Z,11.09
2017-11-17T10:10:09.118Z,11.13
2017-11-17T10:12:35.084Z,11.10
2017-11-17T10:15:01.041Z,11.04
2017-11-17T10:17:26.992Z,11.20
2017-11-17T10:19:52.925Z,11.10
2017-11-17T10:22:18.924Z,10.77
2017-11-17T10:24:44.876Z,10.91
2017-11-17T10:27:10.840Z,11.11
2017-11-17T10:29:36.781Z,11.19
2017-11-17T10:32:02.753Z,10.99
2017-11-17T10:34:28.704Z,11.01
2017-11-17T10:36:54.644Z,11.19
2017-11-17T10:39:20.572Z,11.19
2017-11-17T10:41:46.561Z,11.09
2017-11-17T10:44:12.535Z,11.28
2017-11-17T10:46:38.484Z,11.11
2017-11-17T10:49:04.433Z,11.06
2017-11-17T10:51:30.379Z,11.19
2017-11-17T10:53:56.375Z,11.22
2017-11-17T10:56:22.355Z,11.03
2017-11-17T10:58:48.283Z,11.09
2017-11-17T11:01:14.233Z,11.17
2017-11-17T11:03:40.176Z,11.22
2017-11-17T11:06:06.128Z,11.13
2017-11-17T11:08:32.057Z,11.23
2017-11-17T11:10:57.996Z,11.28
2017-11-17T11:13:24.007Z,11.34
2017-11-17T11:15:49.932Z,11.23
2017-11-17T11:18:15.891Z,11.40
2017-11-17T11:20:41.858Z,11.42
2017-11-17T11:23:07.817Z,11.22
2017-11-17T11:25:33.780Z,11.52
2017-11-17T11:27:59.732Z,11.41
2017-11-17T11:30:25.676Z,11.29
2017-11-17T11:32:51.727Z,11.36
2017-11-17T11:35:17.663Z,11.33
2017-11-17T11:37:43.598Z,11.38
2017-11-17T11:40:09.550Z,11.39
2017-11-17T11:42:35.521Z,11.36
2017-11-17T11:45:01.483Z,11.41
2017-11-17T11:47:27.432Z,11.13
2017-11-17T11:49:53.396Z,11.32
2017-11-17T11:52:19.343Z,11.45
2017-11-17T11:54:45.302Z,11.52
2017-11-17T11:57:11.240Z,11.51
2017-11-17T11:59:37.196Z,11.57
2017-11-17T12:02:03.129Z,11.36
2017-11-17T12:04:29.071Z,11.23
2017-11-17T12:06:55.026Z,11.31
2017-11-17T12:09:20.970Z,11.39
2017-11-17T12:11:46.928Z,11.45
2017-11-17T12:14:12.882Z,11.33
2017-11-17T12:16:38.817Z,11.40
2017-11-17T12:19:04.747Z,11.48
2017-11-17T12:21:30.684Z,11.58
2017-11-17T12:23:56.612Z,11.69
2017-11-17T12:26:22.545Z,11.52
2017-11-17T12:28:48.501Z,11.46
2017-11-17T12:31:14.454Z,11.73
2017-11-17T12:33:40.422Z,11.49
2017-11-17T12:36:06.360Z,11.50
2017-11-17T12:38:32.316Z,11.45
2017-11-17T12:40:58.266Z,11.45
2017-11-17T12:43:24.237Z,11.26
2017-11-17T12:45:50.950Z,11.27
2017-11-17T12:48:16.136Z,11.23
2017-11-17T12:50:42.079Z,11.15
2017-11-17T12:53:08.024Z,11.22
2017-11-17T12:55:33.992Z,11.41
2017-11-17T12:57:59.939Z,11.56
2017-11-17T13:00:25.876Z,11.54
2017-11-17T13:02:51.812Z,11.54
2017-11-17T13:05:17.740Z,11.43
2017-11-17T13:07:43.964Z,11.38
2017-11-17T13:10:09.901Z,11.43
2017-11-17T13:12:35.828Z,11.46
2017-11-17T13:15:01.790Z,11.47
2017-11-17T13:17:27.734Z,11.46
2017-11-17T13:19:53.717Z,11.49
2017-11-17T13:22:19.678Z,11.53
2017-11-17T13:24:45.622Z,11.57
2017-11-17T13:27:11.581Z,11.33
2017-11-17T13:29:37.536Z,11.83
2017-11-17T13:32:03.504Z,12.08
2017-11-17T13:34:29.456Z,12.22
2017-11-17T13:36:55.400Z,12.32
2017-11-17T13:39:21.338Z,12.40
2017-11-17T13:41:47.293Z,12.13
2017-11-17T13:44:13.219Z,12.25
2017-11-17T13:46:39.165Z,12.31
2017-11-17T13:49:05.105Z,12.49
2017-11-17T13:51:31.075Z,12.38
2017-11-17T13:53:57.086Z,12.07
2017-11-17T13:56:23.056Z,12.38
2017-11-17T13:58:49.010Z,12.53
2017-11-17T14:01:15.851Z,12.34
2017-11-17T14:03:41.788Z,12.21
2017-11-17T14:06:07.734Z,12.23
2017-11-17T14:08:33.667Z,12.16
2017-11-17T14:10:59.615Z,12.16
2017-11-17T14:13:26.577Z,12.05
2017-11-17T14:15:52.530Z,12.13
2017-11-17T14:18:18.478Z,12.02
2017-11-17T14:20:44.418Z,12.21
2017-11-17T14:23:10.385Z,11.99
2017-11-17T14:25:36.426Z,11.97
2017-11-17T14:28:02.372Z,11.94
2017-11-17T14:30:28.340Z,11.98
2017-11-17T14:32:54.276Z,11.82
2017-11-17T14:35:20.209Z,11.79
2017-11-17T14:37:46.144Z,11.76
2017-11-17T14:40:12.083Z,11.90
2017-11-17T14:42:38.029Z,12.09
2017-11-17T14:45:03.977Z,11.84
2017-11-17T14:47:29.953Z,11.68
2017-11-17T14:49:55.948Z,11.54
2017-11-17T14:52:22.030Z,11.18
2017-11-17T14:54:47.960Z,11.35
2017-11-17T14:57:13.884Z,11.23
2017-11-17T14:59:39.830Z,10.82
2017-11-17T15:02:05.784Z,10.66
2017-11-17T15:04:31.736Z,10.60
2017-11-17T15:06:57.690Z,10.61
2017-11-17T15:09:23.649Z,10.42
2017-11-17T15:11:49.625Z,10.31
2017-11-17T15:14:15.616Z,10.15
2017-11-17T15:16:41.597Z,10.04
2017-11-17T15:19:07.553Z,9.80
2017-11-17T15:21:33.502Z,9.92
2017-11-17T15:23:59.476Z,9.91
2017-11-17T15:26:25.410Z,9.94
2017-11-17T15:28:51.537Z,9.97
2017-11-17T15:31:17.478Z,9.53
2017-11-17T15:33:43.413Z,9.67
2017-11-17T15:36:09.345Z,9.59
2017-11-17T15:38:35.281Z,9.54
2017-11-17T15:41:01.237Z,9.36
2017-11-17T15:43:27.180Z,9.27
2017-11-17T15:45:53.113Z,9.33
2017-11-17T15:48:19.039Z,9.21
2017-11-17T15:50:45.023Z,9.04
2017-11-17T15:53:10.976Z,8.98
2017-11-17T15:55:36.909Z,9.36
2017-11-17T15:58:02.880Z,9.36
2017-11-17T16:00:28.827Z,9.28
2017-11-17T16:02:54.758Z,9.43
2017-11-17T16:05:20.703Z,10.01
2017-11-17T16:07:46.634Z,10.27
2017-11-17T16:10:12.584Z,9.78
2017-11-17T16:12:38.514Z,9.92
2017-11-17T16:15:04.475Z,10.02
2017-11-17T16:17:30.409Z,9.98
2017-11-17T16:19:56.350Z,10.22
2017-11-17T16:22:22.289Z,9.80
2017-11-17T16:24:48.218Z,9.82
2017-11-17T16:27:14.166Z,9.82
2017-11-17T16:29:40.101Z,9.49
2017-11-17T16:32:06.092Z,9.72
2017-11-17T16:34:32.036Z,9.74
2017-11-17T16:36:58.029Z,9.78
2017-11-17T16:39:23.996Z,9.38
2017-11-17T16:41:49.935Z,9.63
2017-11-17T16:44:15.876Z,9.49
2017-11-17T16:46:41.825Z,9.68
2017-11-17T16:49:07.859Z,9.52
2017-11-17T16:51:33.841Z,9.32
2017-11-17T16:53:59.769Z,9.35
2017-11-17T16:56:25.729Z,9.65
2017-11-17T16:58:51.687Z,9.42
2017-11-17T17:01:17.631Z,9.34
2017-11-17T17:03:43.570Z,9.15
2017-11-17T17:06:09.515Z,9.35
2017-11-17T17:08:35.482Z,9.11
2017-11-17T17:11:01.420Z,9.25
2017-11-17T17:13:27.360Z,9.04
2017-11-17T17:15:53.349Z,8.95
2017-11-17T17:18:19.311Z,8.94
2017-11-17T17:20:45.248Z,9.10
2017-11-17T17:23:11.379Z,9.15
2017-11-17T17:25:37.405Z,9.32
2017-11-17T17:28:03.437Z,9.19
2017-11-17T17:30:29.382Z,9.22
2017-11-17T17:32:55.344Z,9.15
2017-11-17T17:35:21.325Z,9.26
2017-11-17T17:37:47.265Z,9.17
2017-11-17T17:40:13.233Z,9.07
2017-11-17T17:42:39.166Z,9.22
2017-11-17T17:45:05.125Z,9.23
2017-11-17T17:47:31.081Z,9.20
2017-11-17T17:49:57.029Z,9.11
2017-11-17T17:52:22.983Z,9.22
2017-11-17T17:54:48.925Z,8.96
2017-11-17T17:57:14.890Z,8.87
2017-11-17T17:59:40.855Z,8.63
2017-11-17T18:02:06.835Z,8.46
2017-11-17T18:04:33.054Z,8.55
2017-11-17T18:06:59.007Z,8.52
2017-11-17T18:09:24.979Z,8.66
2017-11-17T18:11:50.919Z,8.64
2017-11-17T18:14:16.894Z,8.69
2017-11-17T18:16:42.838Z,8.64
2017-11-17T18:19:08.826Z,8.51
2017-11-17T18:21:34.796Z,8.59
2017-11-17T18:24:00.730Z,8.36
2017-11-17T18:26:26.671Z,8.36
2017-11-17T18:28:52.615Z,8.32
2017-11-17T18:31:18.567Z,8.31
2017-11-17T18:33:44.594Z,8.44
2017-11-17T18:36:10.497Z,8.63
2017-11-17T18:38:36.517Z,8.56
2017-11-17T18:41:02.447Z,8.55
2017-11-17T18:43:28.394Z,8.71
2017-11-17T18:45:54.356Z,8.78
2017-11-17T18:48:20.284Z,8.79
2017-11-17T18:50:46.452Z,8.72
2017-11-17T18:53:12.440Z,8.49
2017-11-17T18:55:38.406Z,8.34
2017-11-17T18:58:04.403Z,8.23
2017-11-17T19:00:30.335Z,7.99
2017-11-17T19:02:56.390Z,7.99
2017-11-17T19:05:22.359Z,7.96
2017-11-17T19:07:48.394Z,7.88
2017-11-17T19:10:14.414Z,7.72
2017-11-17T19:12:40.341Z,8.01
2017-11-17T19:15:06.391Z,8.01
2017-11-17T19:17:32.265Z,7.87
2017-11-17T19:19:59.356Z,7.95
2017-11-17T19:22:25.304Z,7.83
2017-11-17T19:24:51.243Z,7.50
2017-11-17T19:27:17.216Z,7.63
2017-11-17T19:29:43.753Z,7.73
2017-11-17T19:32:09.731Z,7.68
2017-11-17T19:34:35.679Z,7.53
2017-11-17T19:37:01.675Z,7.50
2017-11-17T19:39:27.832Z,7.68
2017-11-17T19:41:53.778Z,7.35
2017-11-17T19:44:19.724Z,7.58
2017-11-17T19:46:45.674Z,7.53
2017-11-17T19:49:11.613Z,7.50
2017-11-17T19:51:37.576Z,7.49
2017-11-17T19:54:03.521Z,7.60
2017-11-17T19:56:29.485Z,7.27
2017-11-17T19:58:55.474Z,7.25
2017-11-17T20:01:21.415Z,7.20
2017-11-17T20:03:47.426Z,7.31
2017-11-17T20:06:13.375Z,7.34
2017-11-17T20:08:39.317Z,7.67
2017-11-17T20:11:05.496Z,7.49
2017-11-17T20:13:31.430Z,7.41
2017-11-17T20:15:57.407Z,7.14
2017-11-17T20:18:23.370Z,7.01
2017-11-17T20:20:49.394Z,6.97
2017-11-17T20:23:15.380Z,7.12
2017-11-17T20:25:41.381Z,7.31
2017-11-17T20:28:07.346Z,7.20
2017-11-17T20:30:33.320Z,7.25
2017-11-17T20:32:59.440Z,7.22
2017-11-17T20:35:25.394Z,7.27
2017-11-17T20:37:51.356Z,7.21
2017-11-17T20:40:17.308Z,7.15
2017-11-17T20:42:43.247Z,6.90
2017-11-17T20:45:10.238Z,6.87
2017-11-17T20:47:36.207Z,7.07
2017-11-17T20:50:02.190Z,7.07
2017-11-17T20:52:28.128Z,6.81
2017-11-17T20:54:54.077Z,6.75
2017-11-17T20:57:20.031Z,6.79
2017-11-17T20:59:47.009Z,6.85
2017-11-17T21:02:12.966Z,6.95
2017-11-17T21:04:38.918Z,6.79
2017-11-17T21:07:04.880Z,6.84
2017-11-17T21:09:30.819Z,7.26
2017-11-17T21:11:56.952Z,7.21
2017-11-17T21:14:22.882Z,7.08
2017-11-17T21:16:48.830Z,6.58
2017-11-17T21:19:14.814Z,6.61
2017-11-17T21:21:40.775Z,6.90
2017-11-17T21:24:06.760Z,6.88
2017-11-17T21:26:32.732Z,6.88
2017-11-17T21:28:58.676Z,6.81
2017-11-17T21:31:24.624Z,6.87
2017-11-17T21:33:50.565Z,6.78
2017-11-17T21:36:16.564Z,6.66
2017-11-17T21:38:42.511Z,6.52
2017-11-17T21:41:08.464Z,6.85
2017-11-17T21:43:34.397Z,6.64
2017-11-17T21:46:00.338Z,6.22
2017-11-17T21:48:26.373Z,6.12
2017-11-17T21:50:52.318Z,6.57
2017-11-17T21:53:18.259Z,6.60
2017-11-17T21:55:44.238Z,6.49
2017-11-17T21:58:10.180Z,6.41
2017-11-17T22:00:36.120Z,6.58
2017-11-17T22:03:02.068Z,6.54
2017-11-17T22:05:28.004Z,6.51
2017-11-17T22:07:53.957Z,6.51
2017-11-17T22:10:19.944Z,6.25
2017-11-17T22:12:45.893Z,6.47
2017-11-17T22:15:11.865Z,6.27
2017-11-17T22:17:37.800Z,6.28
2017-11-17T22:20:03.844Z,6.30
2017-11-17T22:22:34.365Z,6.43
2017-11-17T22:25:00.317Z,6.41
2017-11-17T22:27:26.301Z,6.25
2017-11-17T22:29:52.237Z,6.49
2017-11-17T22:32:19.285Z,6.40
2017-11-17T22:34:47.277Z,6.35
2017-11-17T22:37:13.217Z,6.06
2017-11-17T22:39:39.165Z,6.01
2017-11-17T22:42:05.125Z,5.99
2017-11-17T22:44:31.244Z,5.95
2017-11-17T22:46:57.170Z,6.06
2017-11-17T22:49:23.105Z,5.97
2017-11-17T22:51:49.055Z,5.90
2017-11-17T22:54:15.003Z,5.92
2017-11-17T22:56:40.965Z,5.95
2017-11-17T22:59:06.984Z,6.07
2017-11-17T23:01:32.921Z,6.19
2017-11-17T23:04:01.473Z,5.94
2017-11-17T23:06:27.904Z,6.01
2017-11-17T23:08:53.832Z,5.70
2017-11-17T23:11:19.777Z,5.69
2017-11-17T23:13:48.866Z,5.83
2017-11-17T23:16:15.161Z,5.48
2017-11-17T23:18:41.108Z,5.58
2017-11-17T23:21:07.052Z,6.22
2017-11-17T23:23:32.978Z,5.98
2017-11-17T23:25:58.908Z,6.05
2017-11-17T23:28:24.841Z,6.29
2017-11-17T23:30:50.872Z,6.22
2017-11-17T23:35:48.307Z,5.59
2017-11-17T23:38:14.240Z,5.68
2017-11-17T23:40:40.169Z,5.56
2017-11-17T23:43:06.117Z,5.34
2017-11-17T23:45:32.061Z,5.34
2017-11-17T23:47:58.017Z,5.33
2017-11-17T23:50:23.959Z,5.92
2017-11-17T23:52:49.928Z,6.08
2017-11-17T23:55:15.879Z,5.57
2017-11-17T23:57:41.846Z,5.26
